sensor_id;sensor_type;location;lat;lon;timestamp;P1;durP1;ratioP1;P2;durP2;ratioP2
54679;SDS011;40578;53.178;5.846;2022-09-03T00:00:14;3.30;;;1.50;;
54679;SDS011;40578;53.178;5.846;2022-09-03T00:02:49;2.97;;;1.20;;
54679;SDS011;40578;53.178;5.846;2022-09-03T00:10:49;6.13;;;1.40;;
54679;SDS011;40578;53.178;5.846;2022-09-03T00:13:29;4.90;;;1.40;;
54679;SDS011;40578;53.178;5.846;2022-09-03T00:15:59;4.25;;;1.50;;
54679;SDS011;40578;53.178;5.846;2022-09-03T00:18:30;4.63;;;1.30;;
54679;SDS011;40578;53.178;5.846;2022-09-03T00:21:10;3.78;;;1.65;;
54679;SDS011;40578;53.178;5.846;2022-09-03T00:23:40;3.30;;;1.20;;
54679;SDS011;40578;53.178;5.846;2022-09-03T00:31:24;3.55;;;1.27;;
54679;SDS011;40578;53.178;5.846;2022-09-03T00:34:08;5.10;;;1.30;;
54679;SDS011;40578;53.178;5.846;2022-09-03T00:36:42;3.88;;;1.38;;
54679;SDS011;40578;53.178;5.846;2022-09-03T00:39:28;3.38;;;1.30;;
54679;SDS011;40578;53.178;5.846;2022-09-03T00:44:36;4.03;;;1.45;;
54679;SDS011;40578;53.178;5.846;2022-09-03T00:58:54;5.90;;;1.80;;
54679;SDS011;40578;53.178;5.846;2022-09-03T01:01:33;4.53;;;1.38;;
54679;SDS011;40578;53.178;5.846;2022-09-03T01:04:26;5.00;;;1.60;;
54679;SDS011;40578;53.178;5.846;2022-09-03T01:07:05;3.05;;;1.30;;
54679;SDS011;40578;53.178;5.846;2022-09-03T01:13:08;3.25;;;1.20;;
54679;SDS011;40578;53.178;5.846;2022-09-03T01:19:11;13.30;;;1.58;;
54679;SDS011;40578;53.178;5.846;2022-09-03T01:21:54;5.53;;;1.17;;
54679;SDS011;40578;53.178;5.846;2022-09-03T01:27:10;3.67;;;1.27;;
54679;SDS011;40578;53.178;5.846;2022-09-03T01:29:53;2.90;;;1.10;;
54679;SDS011;40578;53.178;5.846;2022-09-03T01:32:33;4.82;;;1.25;;
54679;SDS011;40578;53.178;5.846;2022-09-03T01:38:08;6.57;;;1.10;;
54679;SDS011;40578;53.178;5.846;2022-09-03T01:43:54;7.75;;;1.60;;
54679;SDS011;40578;53.178;5.846;2022-09-03T01:46:32;4.85;;;1.10;;
54679;SDS011;40578;53.178;5.846;2022-09-03T01:52:33;4.25;;;1.40;;
54679;SDS011;40578;53.178;5.846;2022-09-03T02:00:43;5.10;;;1.52;;
54679;SDS011;40578;53.178;5.846;2022-09-03T02:03:13;4.57;;;1.20;;
54679;SDS011;40578;53.178;5.846;2022-09-03T02:08:08;3.05;;;1.42;;
54679;SDS011;40578;53.178;5.846;2022-09-03T02:10:42;6.45;;;1.17;;
54679;SDS011;40578;53.178;5.846;2022-09-03T02:13:19;3.03;;;1.08;;
54679;SDS011;40578;53.178;5.846;2022-09-03T02:15:51;4.53;;;1.35;;
54679;SDS011;40578;53.178;5.846;2022-09-03T02:18:23;5.47;;;1.20;;
54679;SDS011;40578;53.178;5.846;2022-09-03T02:20:53;3.72;;;1.15;;
54679;SDS011;40578;53.178;5.846;2022-09-03T02:23:20;3.97;;;1.02;;
54679;SDS011;40578;53.178;5.846;2022-09-03T02:25:47;2.15;;;1.30;;
54679;SDS011;40578;53.178;5.846;2022-09-03T02:28:16;2.30;;;1.00;;
54679;SDS011;40578;53.178;5.846;2022-09-03T02:30:42;4.25;;;1.30;;
54679;SDS011;40578;53.178;5.846;2022-09-03T02:33:08;3.67;;;1.20;;
54679;SDS011;40578;53.178;5.846;2022-09-03T02:35:34;5.32;;;1.25;;
54679;SDS011;40578;53.178;5.846;2022-09-03T02:38:14;4.37;;;1.30;;
54679;SDS011;40578;53.178;5.846;2022-09-03T02:40:42;4.75;;;1.30;;
54679;SDS011;40578;53.178;5.846;2022-09-03T02:43:14;4.18;;;1.60;;
54679;SDS011;40578;53.178;5.846;2022-09-03T02:45:47;2.40;;;1.40;;
54679;SDS011;40578;53.178;5.846;2022-09-03T02:48:18;3.50;;;1.17;;
54679;SDS011;40578;53.178;5.846;2022-09-03T02:50:47;3.42;;;1.40;;
54679;SDS011;40578;53.178;5.846;2022-09-03T02:53:13;3.57;;;1.33;;
54679;SDS011;40578;53.178;5.846;2022-09-03T02:55:39;4.43;;;1.30;;
54679;SDS011;40578;53.178;5.846;2022-09-03T02:58:05;5.13;;;1.60;;
54679;SDS011;40578;53.178;5.846;2022-09-03T03:00:32;2.72;;;1.25;;
54679;SDS011;40578;53.178;5.846;2022-09-03T03:03:00;8.90;;;1.50;;
54679;SDS011;40578;53.178;5.846;2022-09-03T03:05:41;3.17;;;1.30;;
54679;SDS011;40578;53.178;5.846;2022-09-03T03:08:10;3.40;;;1.48;;
54679;SDS011;40578;53.178;5.846;2022-09-03T03:10:39;2.92;;;1.40;;
54679;SDS011;40578;53.178;5.846;2022-09-03T03:13:05;3.42;;;1.20;;
54679;SDS011;40578;53.178;5.846;2022-09-03T03:15:31;2.77;;;1.10;;
54679;SDS011;40578;53.178;5.846;2022-09-03T03:17:56;2.23;;;1.17;;
54679;SDS011;40578;53.178;5.846;2022-09-03T03:20:22;7.97;;;2.03;;
54679;SDS011;40578;53.178;5.846;2022-09-03T03:22:48;3.27;;;1.30;;
54679;SDS011;40578;53.178;5.846;2022-09-03T03:25:13;2.03;;;1.17;;
54679;SDS011;40578;53.178;5.846;2022-09-03T03:27:39;2.47;;;1.53;;
54679;SDS011;40578;53.178;5.846;2022-09-03T03:30:06;4.35;;;1.60;;
54679;SDS011;40578;53.178;5.846;2022-09-03T03:32:34;4.45;;;1.35;;
54679;SDS011;40578;53.178;5.846;2022-09-03T03:35:03;3.40;;;1.40;;
54679;SDS011;40578;53.178;5.846;2022-09-03T03:37:30;3.83;;;1.60;;
54679;SDS011;40578;53.178;5.846;2022-09-03T03:39:57;3.55;;;1.50;;
54679;SDS011;40578;53.178;5.846;2022-09-03T03:42:23;1.70;;;1.20;;
54679;SDS011;40578;53.178;5.846;2022-09-03T03:44:49;2.83;;;1.33;;
54679;SDS011;40578;53.178;5.846;2022-09-03T03:47:14;4.70;;;1.60;;
54679;SDS011;40578;53.178;5.846;2022-09-03T03:49:41;1.88;;;1.08;;
54679;SDS011;40578;53.178;5.846;2022-09-03T03:52:08;2.60;;;1.20;;
54679;SDS011;40578;53.178;5.846;2022-09-03T03:54:33;4.60;;;1.57;;
54679;SDS011;40578;53.178;5.846;2022-09-03T03:56:59;1.87;;;1.30;;
54679;SDS011;40578;53.178;5.846;2022-09-03T03:59:25;2.93;;;1.13;;
54679;SDS011;40578;53.178;5.846;2022-09-03T04:01:50;2.83;;;1.13;;
54679;SDS011;40578;53.178;5.846;2022-09-03T04:04:19;3.72;;;1.33;;
54679;SDS011;40578;53.178;5.846;2022-09-03T04:06:44;6.10;;;1.27;;
54679;SDS011;40578;53.178;5.846;2022-09-03T04:09:10;1.80;;;1.10;;
54679;SDS011;40578;53.178;5.846;2022-09-03T04:11:36;5.23;;;1.20;;
54679;SDS011;40578;53.178;5.846;2022-09-03T04:14:01;2.80;;;1.10;;
54679;SDS011;40578;53.178;5.846;2022-09-03T04:16:27;4.07;;;1.20;;
54679;SDS011;40578;53.178;5.846;2022-09-03T04:18:54;5.07;;;1.50;;
54679;SDS011;40578;53.178;5.846;2022-09-03T04:21:21;2.22;;;1.17;;
54679;SDS011;40578;53.178;5.846;2022-09-03T04:23:49;4.15;;;1.50;;
54679;SDS011;40578;53.178;5.846;2022-09-03T04:26:19;4.18;;;1.70;;
54679;SDS011;40578;53.178;5.846;2022-09-03T04:28:49;1.92;;;1.20;;
54679;SDS011;40578;53.178;5.846;2022-09-03T04:31:16;3.33;;;1.30;;
54679;SDS011;40578;53.178;5.846;2022-09-03T04:33:42;3.30;;;1.40;;
54679;SDS011;40578;53.178;5.846;2022-09-03T04:36:09;4.37;;;1.37;;
54679;SDS011;40578;53.178;5.846;2022-09-03T04:38:37;5.85;;;1.30;;
54679;SDS011;40578;53.178;5.846;2022-09-03T04:41:09;3.17;;;1.45;;
54679;SDS011;40578;53.178;5.846;2022-09-03T04:43:36;2.83;;;1.23;;
54679;SDS011;40578;53.178;5.846;2022-09-03T04:46:03;3.05;;;1.40;;
54679;SDS011;40578;53.178;5.846;2022-09-03T04:48:31;3.90;;;1.55;;
54679;SDS011;40578;53.178;5.846;2022-09-03T04:51:05;3.65;;;1.45;;
54679;SDS011;40578;53.178;5.846;2022-09-03T04:53:37;3.50;;;1.52;;
54679;SDS011;40578;53.178;5.846;2022-09-03T04:56:15;3.50;;;1.48;;
54679;SDS011;40578;53.178;5.846;2022-09-03T04:58:46;2.45;;;1.40;;
54679;SDS011;40578;53.178;5.846;2022-09-03T05:01:17;3.88;;;1.48;;
54679;SDS011;40578;53.178;5.846;2022-09-03T05:03:44;2.72;;;1.58;;
54679;SDS011;40578;53.178;5.846;2022-09-03T05:06:10;3.10;;;1.50;;
54679;SDS011;40578;53.178;5.846;2022-09-03T05:08:37;2.33;;;1.33;;
54679;SDS011;40578;53.178;5.846;2022-09-03T05:11:04;3.35;;;1.58;;
54679;SDS011;40578;53.178;5.846;2022-09-03T05:13:32;4.45;;;1.27;;
54679;SDS011;40578;53.178;5.846;2022-09-03T05:18:25;3.88;;;1.60;;
54679;SDS011;40578;53.178;5.846;2022-09-03T05:21:00;2.50;;;1.30;;
54679;SDS011;40578;53.178;5.846;2022-09-03T05:23:27;5.63;;;1.50;;
54679;SDS011;40578;53.178;5.846;2022-09-03T05:25:58;2.92;;;1.88;;
54679;SDS011;40578;53.178;5.846;2022-09-03T05:28:25;3.60;;;1.50;;
54679;SDS011;40578;53.178;5.846;2022-09-03T05:31:08;3.28;;;1.60;;
54679;SDS011;40578;53.178;5.846;2022-09-03T05:33:40;3.80;;;1.50;;
54679;SDS011;40578;53.178;5.846;2022-09-03T05:36:08;2.80;;;1.40;;
54679;SDS011;40578;53.178;5.846;2022-09-03T05:38:36;1.75;;;1.13;;
54679;SDS011;40578;53.178;5.846;2022-09-03T05:41:02;4.40;;;1.50;;
54679;SDS011;40578;53.178;5.846;2022-09-03T05:43:33;2.90;;;1.50;;
54679;SDS011;40578;53.178;5.846;2022-09-03T05:46:03;2.38;;;1.30;;
54679;SDS011;40578;53.178;5.846;2022-09-03T05:48:31;2.38;;;1.52;;
54679;SDS011;40578;53.178;5.846;2022-09-03T05:51:03;2.55;;;1.70;;
54679;SDS011;40578;53.178;5.846;2022-09-03T05:53:32;2.53;;;1.40;;
54679;SDS011;40578;53.178;5.846;2022-09-03T05:56:00;3.53;;;1.40;;
54679;SDS011;40578;53.178;5.846;2022-09-03T05:58:30;3.13;;;1.70;;
54679;SDS011;40578;53.178;5.846;2022-09-03T06:00:57;3.88;;;1.60;;
54679;SDS011;40578;53.178;5.846;2022-09-03T06:03:23;4.20;;;1.60;;
54679;SDS011;40578;53.178;5.846;2022-09-03T06:05:50;2.40;;;1.40;;
54679;SDS011;40578;53.178;5.846;2022-09-03T06:08:16;3.83;;;1.60;;
54679;SDS011;40578;53.178;5.846;2022-09-03T06:10:42;3.58;;;1.50;;
54679;SDS011;40578;53.178;5.846;2022-09-03T06:13:08;4.50;;;1.73;;
54679;SDS011;40578;53.178;5.846;2022-09-03T06:15:34;2.95;;;1.40;;
54679;SDS011;40578;53.178;5.846;2022-09-03T06:18:00;2.73;;;1.67;;
54679;SDS011;40578;53.178;5.846;2022-09-03T06:20:25;4.13;;;1.70;;
54679;SDS011;40578;53.178;5.846;2022-09-03T06:22:54;4.57;;;1.80;;
54679;SDS011;40578;53.178;5.846;2022-09-03T06:27:45;4.25;;;1.75;;
54679;SDS011;40578;53.178;5.846;2022-09-03T06:30:11;3.33;;;1.70;;
54679;SDS011;40578;53.178;5.846;2022-09-03T06:32:47;3.70;;;1.80;;
54679;SDS011;40578;53.178;5.846;2022-09-03T06:35:17;4.95;;;1.70;;
54679;SDS011;40578;53.178;5.846;2022-09-03T06:37:42;4.88;;;1.85;;
54679;SDS011;40578;53.178;5.846;2022-09-03T06:40:08;4.30;;;2.13;;
54679;SDS011;40578;53.178;5.846;2022-09-03T06:42:38;2.50;;;1.52;;
54679;SDS011;40578;53.178;5.846;2022-09-03T06:45:05;4.13;;;1.63;;
54679;SDS011;40578;53.178;5.846;2022-09-03T06:47:32;6.40;;;1.92;;
54679;SDS011;40578;53.178;5.846;2022-09-03T06:49:58;5.30;;;2.33;;
54679;SDS011;40578;53.178;5.846;2022-09-03T06:52:26;5.05;;;1.90;;
54679;SDS011;40578;53.178;5.846;2022-09-03T06:54:52;4.57;;;2.17;;
54679;SDS011;40578;53.178;5.846;2022-09-03T06:57:17;4.13;;;1.77;;
54679;SDS011;40578;53.178;5.846;2022-09-03T06:59:43;2.87;;;1.70;;
54679;SDS011;40578;53.178;5.846;2022-09-03T07:02:09;2.40;;;1.47;;
54679;SDS011;40578;53.178;5.846;2022-09-03T07:04:35;5.07;;;1.80;;
54679;SDS011;40578;53.178;5.846;2022-09-03T07:07:00;3.23;;;1.70;;
54679;SDS011;40578;53.178;5.846;2022-09-03T07:09:26;4.40;;;1.70;;
54679;SDS011;40578;53.178;5.846;2022-09-03T07:11:52;4.50;;;1.98;;
54679;SDS011;40578;53.178;5.846;2022-09-03T07:14:19;3.17;;;1.77;;
54679;SDS011;40578;53.178;5.846;2022-09-03T07:16:45;4.10;;;1.95;;
54679;SDS011;40578;53.178;5.846;2022-09-03T07:19:12;6.57;;;1.70;;
54679;SDS011;40578;53.178;5.846;2022-09-03T07:21:39;3.08;;;2.00;;
54679;SDS011;40578;53.178;5.846;2022-09-03T07:24:08;3.70;;;1.80;;
54679;SDS011;40578;53.178;5.846;2022-09-03T07:26:38;3.47;;;1.80;;
54679;SDS011;40578;53.178;5.846;2022-09-03T07:29:05;3.75;;;1.80;;
54679;SDS011;40578;53.178;5.846;2022-09-03T07:34:03;2.65;;;1.52;;
54679;SDS011;40578;53.178;5.846;2022-09-03T07:36:31;2.75;;;1.65;;
54679;SDS011;40578;53.178;5.846;2022-09-03T07:39:03;3.33;;;1.83;;
54679;SDS011;40578;53.178;5.846;2022-09-03T07:41:29;3.65;;;2.00;;
54679;SDS011;40578;53.178;5.846;2022-09-03T07:43:57;5.32;;;1.48;;
54679;SDS011;40578;53.178;5.846;2022-09-03T07:46:26;5.40;;;1.90;;
54679;SDS011;40578;53.178;5.846;2022-09-03T07:48:52;3.33;;;1.80;;
54679;SDS011;40578;53.178;5.846;2022-09-03T07:51:20;3.42;;;1.83;;
54679;SDS011;40578;53.178;5.846;2022-09-03T07:53:51;3.30;;;2.00;;
54679;SDS011;40578;53.178;5.846;2022-09-03T07:56:18;4.25;;;2.20;;
54679;SDS011;40578;53.178;5.846;2022-09-03T07:58:44;4.50;;;1.80;;
54679;SDS011;40578;53.178;5.846;2022-09-03T08:01:19;4.95;;;2.00;;
54679;SDS011;40578;53.178;5.846;2022-09-03T08:03:47;3.40;;;1.70;;
54679;SDS011;40578;53.178;5.846;2022-09-03T08:06:14;3.42;;;1.73;;
54679;SDS011;40578;53.178;5.846;2022-09-03T08:08:43;3.55;;;1.80;;
54679;SDS011;40578;53.178;5.846;2022-09-03T08:11:10;2.92;;;1.63;;
54679;SDS011;40578;53.178;5.846;2022-09-03T08:13:41;4.22;;;1.90;;
54679;SDS011;40578;53.178;5.846;2022-09-03T08:16:13;6.30;;;1.70;;
54679;SDS011;40578;53.178;5.846;2022-09-03T08:18:41;3.90;;;1.98;;
54679;SDS011;40578;53.178;5.846;2022-09-03T08:21:15;2.53;;;1.60;;
54679;SDS011;40578;53.178;5.846;2022-09-03T08:23:46;3.88;;;1.90;;
54679;SDS011;40578;53.178;5.846;2022-09-03T08:26:16;4.95;;;1.90;;
54679;SDS011;40578;53.178;5.846;2022-09-03T08:28:45;6.35;;;1.95;;
54679;SDS011;40578;53.178;5.846;2022-09-03T08:31:13;5.18;;;1.98;;
54679;SDS011;40578;53.178;5.846;2022-09-03T08:33:44;3.83;;;1.83;;
54679;SDS011;40578;53.178;5.846;2022-09-03T08:36:15;4.68;;;1.73;;
54679;SDS011;40578;53.178;5.846;2022-09-03T08:38:43;3.75;;;1.70;;
54679;SDS011;40578;53.178;5.846;2022-09-03T08:47:15;3.80;;;1.80;;
54679;SDS011;40578;53.178;5.846;2022-09-03T08:52:32;4.90;;;1.65;;
54679;SDS011;40578;53.178;5.846;2022-09-03T08:55:19;5.72;;;1.70;;
54679;SDS011;40578;53.178;5.846;2022-09-03T08:57:50;3.35;;;1.70;;
54679;SDS011;40578;53.178;5.846;2022-09-03T09:06:29;3.75;;;1.70;;
54679;SDS011;40578;53.178;5.846;2022-09-03T09:09:20;5.97;;;1.65;;
54679;SDS011;40578;53.178;5.846;2022-09-03T09:23:37;4.13;;;1.88;;
54679;SDS011;40578;53.178;5.846;2022-09-03T09:26:15;9.02;;;1.95;;
54679;SDS011;40578;53.178;5.846;2022-09-03T09:28:44;4.70;;;1.63;;
54679;SDS011;40578;53.178;5.846;2022-09-03T09:31:13;5.97;;;2.00;;
54679;SDS011;40578;53.178;5.846;2022-09-03T09:33:42;3.08;;;1.60;;
54679;SDS011;40578;53.178;5.846;2022-09-03T09:36:09;6.40;;;1.98;;
54679;SDS011;40578;53.178;5.846;2022-09-03T09:38:39;9.30;;;2.00;;
54679;SDS011;40578;53.178;5.846;2022-09-03T09:43:35;6.10;;;1.80;;
54679;SDS011;40578;53.178;5.846;2022-09-03T09:46:08;6.15;;;1.40;;
54679;SDS011;40578;53.178;5.846;2022-09-03T09:48:51;4.63;;;1.70;;
54679;SDS011;40578;53.178;5.846;2022-09-03T09:51:24;2.25;;;1.50;;
54679;SDS011;40578;53.178;5.846;2022-09-03T09:56:32;4.20;;;1.80;;
54679;SDS011;40578;53.178;5.846;2022-09-03T09:59:07;5.77;;;1.80;;
54679;SDS011;40578;53.178;5.846;2022-09-03T10:01:42;5.63;;;1.70;;
54679;SDS011;40578;53.178;5.846;2022-09-03T10:04:10;5.60;;;1.60;;
54679;SDS011;40578;53.178;5.846;2022-09-03T10:06:37;5.05;;;1.70;;
54679;SDS011;40578;53.178;5.846;2022-09-03T10:09:22;6.00;;;1.40;;
54679;SDS011;40578;53.178;5.846;2022-09-03T10:11:49;5.00;;;1.40;;
54679;SDS011;40578;53.178;5.846;2022-09-03T10:28:32;4.90;;;1.70;;
54679;SDS011;40578;53.178;5.846;2022-09-03T10:39:50;3.00;;;1.67;;
54679;SDS011;40578;53.178;5.846;2022-09-03T10:45:26;4.18;;;1.60;;
54679;SDS011;40578;53.178;5.846;2022-09-03T10:53:49;3.27;;;1.50;;
54679;SDS011;40578;53.178;5.846;2022-09-03T10:56:12;4.90;;;1.58;;
54679;SDS011;40578;53.178;5.846;2022-09-03T11:01:23;4.13;;;1.40;;
54679;SDS011;40578;53.178;5.846;2022-09-03T11:04:15;3.90;;;1.70;;
54679;SDS011;40578;53.178;5.846;2022-09-03T11:06:53;3.92;;;1.52;;
54679;SDS011;40578;53.178;5.846;2022-09-03T11:09:26;4.72;;;1.52;;
54679;SDS011;40578;53.178;5.846;2022-09-03T11:12:03;3.90;;;1.55;;
54679;SDS011;40578;53.178;5.846;2022-09-03T11:14:34;3.88;;;1.63;;
54679;SDS011;40578;53.178;5.846;2022-09-03T11:17:33;4.45;;;1.40;;
54679;SDS011;40578;53.178;5.846;2022-09-03T11:22:43;5.07;;;1.30;;
54679;SDS011;40578;53.178;5.846;2022-09-03T11:25:11;8.55;;;1.38;;
54679;SDS011;40578;53.178;5.846;2022-09-03T11:30:23;2.40;;;1.30;;
54679;SDS011;40578;53.178;5.846;2022-09-03T11:32:59;2.85;;;1.42;;
54679;SDS011;40578;53.178;5.846;2022-09-03T11:35:37;9.27;;;1.30;;
54679;SDS011;40578;53.178;5.846;2022-09-03T11:41:00;4.78;;;1.60;;
54679;SDS011;40578;53.178;5.846;2022-09-03T11:43:50;5.07;;;1.50;;
54679;SDS011;40578;53.178;5.846;2022-09-03T11:48:48;4.18;;;1.83;;
54679;SDS011;40578;53.178;5.846;2022-09-03T11:56:36;5.43;;;1.50;;
54679;SDS011;40578;53.178;5.846;2022-09-03T11:59:13;3.30;;;1.30;;
54679;SDS011;40578;53.178;5.846;2022-09-03T12:01:44;2.53;;;1.10;;
54679;SDS011;40578;53.178;5.846;2022-09-03T12:04:17;3.90;;;1.25;;
54679;SDS011;40578;53.178;5.846;2022-09-03T12:06:48;2.42;;;0.98;;
54679;SDS011;40578;53.178;5.846;2022-09-03T12:15:06;7.30;;;1.25;;
54679;SDS011;40578;53.178;5.846;2022-09-03T12:17:53;3.63;;;1.27;;
54679;SDS011;40578;53.178;5.846;2022-09-03T12:23:30;4.32;;;1.25;;
54679;SDS011;40578;53.178;5.846;2022-09-03T12:26:01;3.08;;;1.30;;
54679;SDS011;40578;53.178;5.846;2022-09-03T12:28:30;1.98;;;1.10;;
54679;SDS011;40578;53.178;5.846;2022-09-03T12:33:44;3.47;;;1.10;;
54679;SDS011;40578;53.178;5.846;2022-09-03T12:36:09;4.60;;;1.25;;
54679;SDS011;40578;53.178;5.846;2022-09-03T12:38:37;5.63;;;1.60;;
54679;SDS011;40578;53.178;5.846;2022-09-03T12:41:18;5.43;;;1.30;;
54679;SDS011;40578;53.178;5.846;2022-09-03T12:43:52;7.78;;;1.45;;
54679;SDS011;40578;53.178;5.846;2022-09-03T12:46:22;1.65;;;1.10;;
54679;SDS011;40578;53.178;5.846;2022-09-03T12:48:55;3.97;;;1.30;;
54679;SDS011;40578;53.178;5.846;2022-09-03T12:51:32;6.55;;;1.88;;
54679;SDS011;40578;53.178;5.846;2022-09-03T12:54:03;4.30;;;1.20;;
54679;SDS011;40578;53.178;5.846;2022-09-03T12:56:38;2.13;;;1.35;;
54679;SDS011;40578;53.178;5.846;2022-09-03T12:59:08;2.30;;;1.23;;
54679;SDS011;40578;53.178;5.846;2022-09-03T13:01:51;2.60;;;1.50;;
54679;SDS011;40578;53.178;5.846;2022-09-03T13:04:24;5.40;;;1.23;;
54679;SDS011;40578;53.178;5.846;2022-09-03T13:06:55;4.28;;;1.40;;
54679;SDS011;40578;53.178;5.846;2022-09-03T13:09:29;5.53;;;1.20;;
54679;SDS011;40578;53.178;5.846;2022-09-03T13:11:57;4.95;;;1.30;;
54679;SDS011;40578;53.178;5.846;2022-09-03T13:14:25;1.88;;;1.10;;
54679;SDS011;40578;53.178;5.846;2022-09-03T13:17:03;1.65;;;1.02;;
54679;SDS011;40578;53.178;5.846;2022-09-03T13:22:52;3.05;;;1.02;;
54679;SDS011;40578;53.178;5.846;2022-09-03T13:25:34;6.65;;;1.40;;
54679;SDS011;40578;53.178;5.846;2022-09-03T13:30:58;3.10;;;1.17;;
54679;SDS011;40578;53.178;5.846;2022-09-03T13:33:41;4.03;;;1.00;;
54679;SDS011;40578;53.178;5.846;2022-09-03T13:36:14;3.30;;;1.10;;
54679;SDS011;40578;53.178;5.846;2022-09-03T13:38:56;4.15;;;1.20;;
54679;SDS011;40578;53.178;5.846;2022-09-03T13:46:53;4.80;;;1.07;;
54679;SDS011;40578;53.178;5.846;2022-09-03T13:49:33;2.42;;;1.13;;
54679;SDS011;40578;53.178;5.846;2022-09-03T13:52:41;5.25;;;1.38;;
54679;SDS011;40578;53.178;5.846;2022-09-03T13:55:46;5.20;;;1.17;;
54679;SDS011;40578;53.178;5.846;2022-09-03T14:00:44;3.95;;;1.20;;
54679;SDS011;40578;53.178;5.846;2022-09-03T14:06:13;2.97;;;1.02;;
54679;SDS011;40578;53.178;5.846;2022-09-03T14:11:37;1.95;;;1.10;;
54679;SDS011;40578;53.178;5.846;2022-09-03T14:23:03;3.05;;;1.40;;
54679;SDS011;40578;53.178;5.846;2022-09-03T14:25:30;1.65;;;1.10;;
54679;SDS011;40578;53.178;5.846;2022-09-03T14:28:23;5.38;;;1.20;;
54679;SDS011;40578;53.178;5.846;2022-09-03T14:36:35;5.25;;;1.30;;
54679;SDS011;40578;53.178;5.846;2022-09-03T14:44:41;3.83;;;1.00;;
54679;SDS011;40578;53.178;5.846;2022-09-03T14:47:55;3.63;;;1.20;;
54679;SDS011;40578;53.178;5.846;2022-09-03T14:58:39;4.03;;;1.33;;
54679;SDS011;40578;53.178;5.846;2022-09-03T15:01:31;4.60;;;1.20;;
54679;SDS011;40578;53.178;5.846;2022-09-03T15:04:13;4.43;;;1.13;;
54679;SDS011;40578;53.178;5.846;2022-09-03T15:10:16;3.25;;;1.13;;
54679;SDS011;40578;53.178;5.846;2022-09-03T15:12:49;2.83;;;1.20;;
54679;SDS011;40578;53.178;5.846;2022-09-03T15:16:04;5.57;;;1.27;;
54679;SDS011;40578;53.178;5.846;2022-09-03T15:21:18;2.35;;;1.08;;
54679;SDS011;40578;53.178;5.846;2022-09-03T15:26:46;5.18;;;1.08;;
54679;SDS011;40578;53.178;5.846;2022-09-03T15:29:25;2.65;;;1.30;;
54679;SDS011;40578;53.178;5.846;2022-09-03T15:35:05;2.45;;;1.20;;
54679;SDS011;40578;53.178;5.846;2022-09-03T15:37:52;5.13;;;1.30;;
54679;SDS011;40578;53.178;5.846;2022-09-03T15:40:35;2.35;;;1.10;;
54679;SDS011;40578;53.178;5.846;2022-09-03T15:43:17;3.30;;;1.25;;
54679;SDS011;40578;53.178;5.846;2022-09-03T15:51:11;1.88;;;1.08;;
54679;SDS011;40578;53.178;5.846;2022-09-03T15:56:42;5.82;;;1.20;;
54679;SDS011;40578;53.178;5.846;2022-09-03T16:02:11;4.07;;;1.10;;
54679;SDS011;40578;53.178;5.846;2022-09-03T16:14:57;4.63;;;1.27;;
54679;SDS011;40578;53.178;5.846;2022-09-03T16:17:53;5.75;;;1.20;;
54679;SDS011;40578;53.178;5.846;2022-09-03T16:20:35;5.88;;;1.30;;
54679;SDS011;40578;53.178;5.846;2022-09-03T16:23:09;5.43;;;1.30;;
54679;SDS011;40578;53.178;5.846;2022-09-03T16:25:46;6.03;;;1.15;;
54679;SDS011;40578;53.178;5.846;2022-09-03T16:28:23;2.65;;;1.20;;
54679;SDS011;40578;53.178;5.846;2022-09-03T16:31:03;3.10;;;1.27;;
54679;SDS011;40578;53.178;5.846;2022-09-03T16:38:53;3.65;;;1.17;;
54679;SDS011;40578;53.178;5.846;2022-09-03T16:46:44;4.45;;;1.10;;
54679;SDS011;40578;53.178;5.846;2022-09-03T17:03:36;3.90;;;1.30;;
54679;SDS011;40578;53.178;5.846;2022-09-03T17:06:28;6.40;;;1.30;;
54679;SDS011;40578;53.178;5.846;2022-09-03T17:09:19;3.67;;;1.33;;
54679;SDS011;40578;53.178;5.846;2022-09-03T17:14:47;4.10;;;2.20;;
54679;SDS011;40578;53.178;5.846;2022-09-03T17:17:33;3.90;;;1.30;;
54679;SDS011;40578;53.178;5.846;2022-09-03T17:25:35;2.95;;;1.30;;
54679;SDS011;40578;53.178;5.846;2022-09-03T17:33:45;2.60;;;1.20;;
54679;SDS011;40578;53.178;5.846;2022-09-03T17:36:32;6.25;;;1.75;;
54679;SDS011;40578;53.178;5.846;2022-09-03T17:49:52;7.10;;;1.80;;
54679;SDS011;40578;53.178;5.846;2022-09-03T17:54:46;5.80;;;1.63;;
54679;SDS011;40578;53.178;5.846;2022-09-03T17:57:20;5.30;;;1.65;;
54679;SDS011;40578;53.178;5.846;2022-09-03T17:59:53;4.55;;;1.80;;
54679;SDS011;40578;53.178;5.846;2022-09-03T18:02:32;2.85;;;1.50;;
54679;SDS011;40578;53.178;5.846;2022-09-03T18:05:17;3.88;;;1.65;;
54679;SDS011;40578;53.178;5.846;2022-09-03T18:10:49;7.55;;;1.40;;
54679;SDS011;40578;53.178;5.846;2022-09-03T18:16:18;2.45;;;1.45;;
54679;SDS011;40578;53.178;5.846;2022-09-03T18:22:28;7.82;;;1.40;;
54679;SDS011;40578;53.178;5.846;2022-09-03T18:25:18;3.33;;;1.52;;
54679;SDS011;40578;53.178;5.846;2022-09-03T18:28:08;2.70;;;1.65;;
54679;SDS011;40578;53.178;5.846;2022-09-03T18:30:57;4.53;;;1.52;;
54679;SDS011;40578;53.178;5.846;2022-09-03T18:33:41;9.50;;;2.08;;
54679;SDS011;40578;53.178;5.846;2022-09-03T18:36:25;3.53;;;1.67;;
54679;SDS011;40578;53.178;5.846;2022-09-03T18:39:23;4.97;;;1.60;;
54679;SDS011;40578;53.178;5.846;2022-09-03T19:01:03;6.38;;;1.95;;
54679;SDS011;40578;53.178;5.846;2022-09-03T19:03:57;9.35;;;2.08;;
54679;SDS011;40578;53.178;5.846;2022-09-03T19:07:10;4.20;;;1.75;;
54679;SDS011;40578;53.178;5.846;2022-09-03T19:13:05;4.07;;;1.83;;
54679;SDS011;40578;53.178;5.846;2022-09-03T19:22:46;3.75;;;1.55;;
54679;SDS011;40578;53.178;5.846;2022-09-03T19:25:30;5.20;;;1.70;;
54679;SDS011;40578;53.178;5.846;2022-09-03T19:28:18;3.95;;;1.73;;
54679;SDS011;40578;53.178;5.846;2022-09-03T19:31:15;4.68;;;1.80;;
54679;SDS011;40578;53.178;5.846;2022-09-03T19:46:17;5.15;;;1.73;;
54679;SDS011;40578;53.178;5.846;2022-09-03T19:49:17;4.22;;;1.95;;
54679;SDS011;40578;53.178;5.846;2022-09-03T19:55:17;6.55;;;1.98;;
54679;SDS011;40578;53.178;5.846;2022-09-03T19:58:07;4.90;;;2.00;;
54679;SDS011;40578;53.178;5.846;2022-09-03T20:00:52;4.78;;;2.13;;
54679;SDS011;40578;53.178;5.846;2022-09-03T20:03:36;3.83;;;1.73;;
54679;SDS011;40578;53.178;5.846;2022-09-03T20:06:21;7.35;;;2.28;;
54679;SDS011;40578;53.178;5.846;2022-09-03T20:09:08;3.83;;;2.00;;
54679;SDS011;40578;53.178;5.846;2022-09-03T20:11:57;7.15;;;2.00;;
54679;SDS011;40578;53.178;5.846;2022-09-03T20:14:27;8.55;;;2.72;;
54679;SDS011;40578;53.178;5.846;2022-09-03T20:19:49;5.85;;;2.00;;
54679;SDS011;40578;53.178;5.846;2022-09-03T20:22:41;5.22;;;2.00;;
54679;SDS011;40578;53.178;5.846;2022-09-03T20:30:45;5.75;;;1.75;;
54679;SDS011;40578;53.178;5.846;2022-09-03T20:38:59;5.07;;;2.25;;
54679;SDS011;40578;53.178;5.846;2022-09-03T20:41:44;4.15;;;2.20;;
54679;SDS011;40578;53.178;5.846;2022-09-03T20:52:20;6.25;;;2.60;;
54679;SDS011;40578;53.178;5.846;2022-09-03T21:00:03;5.45;;;1.88;;
54679;SDS011;40578;53.178;5.846;2022-09-03T21:02:45;5.53;;;2.17;;
54679;SDS011;40578;53.178;5.846;2022-09-03T21:08:06;6.07;;;2.10;;
54679;SDS011;40578;53.178;5.846;2022-09-03T21:21:23;7.47;;;2.28;;
54679;SDS011;40578;53.178;5.846;2022-09-03T21:26:47;7.38;;;2.75;;
54679;SDS011;40578;53.178;5.846;2022-09-03T21:34:34;3.97;;;2.50;;
54679;SDS011;40578;53.178;5.846;2022-09-03T21:37:05;2.78;;;2.20;;
54679;SDS011;40578;53.178;5.846;2022-09-03T21:39:56;3.28;;;2.25;;
54679;SDS011;40578;53.178;5.846;2022-09-03T21:47:59;5.43;;;2.50;;
54679;SDS011;40578;53.178;5.846;2022-09-03T21:50:38;6.75;;;2.25;;
54679;SDS011;40578;53.178;5.846;2022-09-03T21:53:14;7.97;;;2.30;;
54679;SDS011;40578;53.178;5.846;2022-09-03T21:55:57;4.20;;;2.10;;
54679;SDS011;40578;53.178;5.846;2022-09-03T22:03:58;3.08;;;2.05;;
54679;SDS011;40578;53.178;5.846;2022-09-03T22:06:27;6.23;;;2.50;;